sensor_id;sensor_type;location;lat;lon;timestamp;P1;durP1;ratioP1;P2;durP2;ratioP2
15905;SDS011;8051;50.820;4.884;2023-10-13T00:00:28;59.20;;;53.00;;
15905;SDS011;8051;50.820;4.884;2023-10-13T00:03:01;58.27;;;52.57;;
15905;SDS011;8051;50.820;4.884;2023-10-13T00:05:29;56.90;;;51.20;;
15905;SDS011;8051;50.820;4.884;2023-10-13T00:07:57;59.17;;;53.33;;
15905;SDS011;8051;50.820;4.884;2023-10-13T00:10:26;56.27;;;50.93;;
15905;SDS011;8051;50.820;4.884;2023-10-13T00:12:54;58.07;;;52.40;;
15905;SDS011;8051;50.820;4.884;2023-10-13T00:15:33;57.90;;;51.70;;
15905;SDS011;8051;50.820;4.884;2023-10-13T00:18:04;54.80;;;49.60;;
15905;SDS011;8051;50.820;4.884;2023-10-13T00:20:38;56.27;;;50.70;;
15905;SDS011;8051;50.820;4.884;2023-10-13T00:23:12;55.23;;;49.87;;
15905;SDS011;8051;50.820;4.884;2023-10-13T00:25:39;55.00;;;49.80;;
15905;SDS011;8051;50.820;4.884;2023-10-13T00:28:15;55.33;;;49.90;;
15905;SDS011;8051;50.820;4.884;2023-10-13T00:30:50;55.33;;;49.87;;
15905;SDS011;8051;50.820;4.884;2023-10-13T00:33:24;56.20;;;50.47;;
15905;SDS011;8051;50.820;4.884;2023-10-13T00:35:52;53.70;;;48.13;;
15905;SDS011;8051;50.820;4.884;2023-10-13T00:38:23;53.83;;;48.13;;
15905;SDS011;8051;50.820;4.884;2023-10-13T00:40:52;52.43;;;47.27;;
15905;SDS011;8051;50.820;4.884;2023-10-13T00:43:21;56.40;;;48.40;;
15905;SDS011;8051;50.820;4.884;2023-10-13T00:45:59;56.40;;;50.60;;
15905;SDS011;8051;50.820;4.884;2023-10-13T00:48:38;55.17;;;49.37;;
15905;SDS011;8051;50.820;4.884;2023-10-13T00:51:17;54.10;;;48.30;;
15905;SDS011;8051;50.820;4.884;2023-10-13T00:53:47;53.40;;;48.30;;
15905;SDS011;8051;50.820;4.884;2023-10-13T00:56:15;52.20;;;47.10;;
15905;SDS011;8051;50.820;4.884;2023-10-13T00:58:47;51.90;;;46.97;;
15905;SDS011;8051;50.820;4.884;2023-10-13T01:01:18;49.70;;;44.93;;
15905;SDS011;8051;50.820;4.884;2023-10-13T01:03:47;50.93;;;45.67;;
15905;SDS011;8051;50.820;4.884;2023-10-13T01:06:18;49.67;;;44.83;;
15905;SDS011;8051;50.820;4.884;2023-10-13T01:08:46;49.10;;;44.33;;
15905;SDS011;8051;50.820;4.884;2023-10-13T01:11:17;49.97;;;44.97;;
15905;SDS011;8051;50.820;4.884;2023-10-13T01:13:44;50.23;;;44.93;;
15905;SDS011;8051;50.820;4.884;2023-10-13T01:16:17;48.93;;;44.07;;
15905;SDS011;8051;50.820;4.884;2023-10-13T01:18:48;48.20;;;43.43;;
15905;SDS011;8051;50.820;4.884;2023-10-13T01:21:16;49.43;;;43.53;;
15905;SDS011;8051;50.820;4.884;2023-10-13T01:23:47;48.63;;;43.87;;
15905;SDS011;8051;50.820;4.884;2023-10-13T01:26:16;47.77;;;43.10;;
15905;SDS011;8051;50.820;4.884;2023-10-13T01:28:49;47.67;;;42.97;;
15905;SDS011;8051;50.820;4.884;2023-10-13T01:31:19;47.17;;;42.53;;
15905;SDS011;8051;50.820;4.884;2023-10-13T01:33:55;46.43;;;42.20;;
15905;SDS011;8051;50.820;4.884;2023-10-13T01:36:25;47.70;;;42.80;;
15905;SDS011;8051;50.820;4.884;2023-10-13T01:38:54;46.73;;;42.10;;
15905;SDS011;8051;50.820;4.884;2023-10-13T01:41:22;46.93;;;41.83;;
15905;SDS011;8051;50.820;4.884;2023-10-13T01:43:48;45.80;;;41.43;;
15905;SDS011;8051;50.820;4.884;2023-10-13T01:46:15;46.50;;;42.27;;
15905;SDS011;8051;50.820;4.884;2023-10-13T01:48:44;47.87;;;43.40;;
15905;SDS011;8051;50.820;4.884;2023-10-13T01:51:12;47.87;;;43.27;;
15905;SDS011;8051;50.820;4.884;2023-10-13T01:53:38;48.43;;;43.47;;
15905;SDS011;8051;50.820;4.884;2023-10-13T01:56:09;46.10;;;41.90;;
15905;SDS011;8051;50.820;4.884;2023-10-13T01:58:37;47.73;;;43.33;;
15905;SDS011;8051;50.820;4.884;2023-10-13T02:01:07;46.20;;;41.50;;
15905;SDS011;8051;50.820;4.884;2023-10-13T02:03:36;48.37;;;43.10;;
15905;SDS011;8051;50.820;4.884;2023-10-13T02:06:11;46.60;;;42.43;;
15905;SDS011;8051;50.820;4.884;2023-10-13T02:08:42;46.87;;;42.37;;
15905;SDS011;8051;50.820;4.884;2023-10-13T02:11:14;46.03;;;41.57;;
15905;SDS011;8051;50.820;4.884;2023-10-13T02:13:43;47.83;;;42.73;;
15905;SDS011;8051;50.820;4.884;2023-10-13T02:16:19;46.63;;;42.00;;
15905;SDS011;8051;50.820;4.884;2023-10-13T02:18:46;49.83;;;44.40;;
15905;SDS011;8051;50.820;4.884;2023-10-13T02:21:16;45.83;;;41.53;;
15905;SDS011;8051;50.820;4.884;2023-10-13T02:23:42;45.37;;;41.10;;
15905;SDS011;8051;50.820;4.884;2023-10-13T02:26:10;45.80;;;40.80;;
15905;SDS011;8051;50.820;4.884;2023-10-13T02:28:41;46.77;;;42.03;;
15905;SDS011;8051;50.820;4.884;2023-10-13T02:31:16;45.80;;;41.70;;
15905;SDS011;8051;50.820;4.884;2023-10-13T02:33:44;45.70;;;41.17;;
15905;SDS011;8051;50.820;4.884;2023-10-13T02:36:11;47.50;;;42.57;;
15905;SDS011;8051;50.820;4.884;2023-10-13T02:38:38;45.43;;;41.40;;
15905;SDS011;8051;50.820;4.884;2023-10-13T02:41:12;44.30;;;39.93;;
15905;SDS011;8051;50.820;4.884;2023-10-13T02:43:52;45.70;;;41.20;;
15905;SDS011;8051;50.820;4.884;2023-10-13T02:46:20;44.33;;;39.37;;
15905;SDS011;8051;50.820;4.884;2023-10-13T02:48:47;44.40;;;40.20;;
15905;SDS011;8051;50.820;4.884;2023-10-13T02:51:18;44.70;;;40.60;;
15905;SDS011;8051;50.820;4.884;2023-10-13T02:53:50;43.77;;;39.60;;
15905;SDS011;8051;50.820;4.884;2023-10-13T02:56:18;44.23;;;39.97;;
15905;SDS011;8051;50.820;4.884;2023-10-13T02:58:47;39.67;;;35.87;;
15905;SDS011;8051;50.820;4.884;2023-10-13T03:01:20;40.63;;;36.63;;
15905;SDS011;8051;50.820;4.884;2023-10-13T03:03:52;41.13;;;37.10;;
15905;SDS011;8051;50.820;4.884;2023-10-13T03:06:21;39.13;;;35.57;;
15905;SDS011;8051;50.820;4.884;2023-10-13T03:08:49;37.40;;;34.00;;
15905;SDS011;8051;50.820;4.884;2023-10-13T03:11:18;38.63;;;34.60;;
15905;SDS011;8051;50.820;4.884;2023-10-13T03:13:49;36.97;;;32.90;;
15905;SDS011;8051;50.820;4.884;2023-10-13T03:16:17;37.03;;;33.73;;
15905;SDS011;8051;50.820;4.884;2023-10-13T03:18:47;38.80;;;34.63;;
15905;SDS011;8051;50.820;4.884;2023-10-13T03:21:21;35.70;;;32.13;;
15905;SDS011;8051;50.820;4.884;2023-10-13T03:23:56;33.93;;;30.77;;
15905;SDS011;8051;50.820;4.884;2023-10-13T03:26:30;31.83;;;28.73;;
15905;SDS011;8051;50.820;4.884;2023-10-13T03:29:02;32.07;;;29.20;;
15905;SDS011;8051;50.820;4.884;2023-10-13T03:31:39;32.23;;;29.03;;
15905;SDS011;8051;50.820;4.884;2023-10-13T03:34:10;33.80;;;30.27;;
15905;SDS011;8051;50.820;4.884;2023-10-13T03:36:38;32.10;;;29.10;;
15905;SDS011;8051;50.820;4.884;2023-10-13T03:39:24;31.27;;;28.47;;
15905;SDS011;8051;50.820;4.884;2023-10-13T03:41:57;30.80;;;27.83;;
15905;SDS011;8051;50.820;4.884;2023-10-13T03:44:30;31.40;;;28.30;;
15905;SDS011;8051;50.820;4.884;2023-10-13T03:46:59;27.33;;;24.77;;
15905;SDS011;8051;50.820;4.884;2023-10-13T03:49:43;22.17;;;20.00;;
15905;SDS011;8051;50.820;4.884;2023-10-13T03:52:11;24.73;;;20.67;;
15905;SDS011;8051;50.820;4.884;2023-10-13T03:54:39;23.40;;;17.87;;
15905;SDS011;8051;50.820;4.884;2023-10-13T03:57:07;27.93;;;18.23;;
15905;SDS011;8051;50.820;4.884;2023-10-13T03:59:37;23.40;;;18.23;;
15905;SDS011;8051;50.820;4.884;2023-10-13T04:02:07;25.37;;;15.83;;
15905;SDS011;8051;50.820;4.884;2023-10-13T04:04:43;21.03;;;17.97;;
15905;SDS011;8051;50.820;4.884;2023-10-13T04:07:14;21.80;;;17.73;;
15905;SDS011;8051;50.820;4.884;2023-10-13T04:09:59;20.60;;;17.03;;
15905;SDS011;8051;50.820;4.884;2023-10-13T04:12:40;19.43;;;17.50;;
15905;SDS011;8051;50.820;4.884;2023-10-13T04:15:39;17.07;;;15.37;;
15905;SDS011;8051;50.820;4.884;2023-10-13T04:18:29;23.93;;;16.17;;
15905;SDS011;8051;50.820;4.884;2023-10-13T04:21:12;17.93;;;15.47;;
15905;SDS011;8051;50.820;4.884;2023-10-13T04:24:05;18.07;;;14.30;;
15905;SDS011;8051;50.820;4.884;2023-10-13T04:26:51;17.10;;;15.40;;
15905;SDS011;8051;50.820;4.884;2023-10-13T04:29:36;19.17;;;13.23;;
15905;SDS011;8051;50.820;4.884;2023-10-13T04:32:16;23.23;;;13.93;;
15905;SDS011;8051;50.820;4.884;2023-10-13T04:34:55;16.90;;;13.80;;
15905;SDS011;8051;50.820;4.884;2023-10-13T04:37:33;15.67;;;13.87;;
15905;SDS011;8051;50.820;4.884;2023-10-13T04:40:14;18.63;;;14.70;;
15905;SDS011;8051;50.820;4.884;2023-10-13T04:42:44;33.10;;;17.80;;
15905;SDS011;8051;50.820;4.884;2023-10-13T04:45:19;17.77;;;15.90;;
15905;SDS011;8051;50.820;4.884;2023-10-13T04:48:10;23.37;;;17.00;;
15905;SDS011;8051;50.820;4.884;2023-10-13T04:50:45;24.10;;;17.00;;
15905;SDS011;8051;50.820;4.884;2023-10-13T04:53:13;21.20;;;17.50;;
15905;SDS011;8051;50.820;4.884;2023-10-13T04:55:58;27.47;;;18.80;;
15905;SDS011;8051;50.820;4.884;2023-10-13T04:58:33;22.40;;;15.50;;
15905;SDS011;8051;50.820;4.884;2023-10-13T05:01:16;19.77;;;16.33;;
15905;SDS011;8051;50.820;4.884;2023-10-13T05:04:09;18.20;;;16.40;;
15905;SDS011;8051;50.820;4.884;2023-10-13T05:06:49;20.70;;;14.30;;
15905;SDS011;8051;50.820;4.884;2023-10-13T05:09:48;18.23;;;15.17;;
15905;SDS011;8051;50.820;4.884;2023-10-13T05:12:32;20.03;;;15.20;;
15905;SDS011;8051;50.820;4.884;2023-10-13T05:15:18;19.73;;;15.40;;
15905;SDS011;8051;50.820;4.884;2023-10-13T05:18:03;20.23;;;15.13;;
15905;SDS011;8051;50.820;4.884;2023-10-13T05:20:48;21.50;;;15.23;;
15905;SDS011;8051;50.820;4.884;2023-10-13T05:23:34;17.37;;;14.43;;
15905;SDS011;8051;50.820;4.884;2023-10-13T05:26:19;19.37;;;14.37;;
15905;SDS011;8051;50.820;4.884;2023-10-13T05:29:04;16.40;;;14.03;;
15905;SDS011;8051;50.820;4.884;2023-10-13T05:31:48;21.67;;;15.30;;
15905;SDS011;8051;50.820;4.884;2023-10-13T05:34:33;20.87;;;14.87;;
15905;SDS011;8051;50.820;4.884;2023-10-13T05:37:17;21.23;;;14.87;;
15905;SDS011;8051;50.820;4.884;2023-10-13T05:40:04;23.40;;;15.33;;
15905;SDS011;8051;50.820;4.884;2023-10-13T05:42:50;20.40;;;15.00;;
15905;SDS011;8051;50.820;4.884;2023-10-13T05:45:35;20.67;;;15.90;;
15905;SDS011;8051;50.820;4.884;2023-10-13T05:48:28;25.53;;;16.67;;
15905;SDS011;8051;50.820;4.884;2023-10-13T05:51:17;18.70;;;16.60;;
15905;SDS011;8051;50.820;4.884;2023-10-13T05:54:09;19.97;;;16.10;;
15905;SDS011;8051;50.820;4.884;2023-10-13T05:56:56;27.13;;;15.47;;
15905;SDS011;8051;50.820;4.884;2023-10-13T05:59:40;21.03;;;16.20;;
15905;SDS011;8051;50.820;4.884;2023-10-13T06:02:25;20.63;;;16.17;;
15905;SDS011;8051;50.820;4.884;2023-10-13T06:05:10;20.97;;;17.40;;
15905;SDS011;8051;50.820;4.884;2023-10-13T06:07:56;20.67;;;15.90;;
15905;SDS011;8051;50.820;4.884;2023-10-13T06:10:41;21.67;;;17.23;;
15905;SDS011;8051;50.820;4.884;2023-10-13T06:13:27;20.53;;;16.80;;
15905;SDS011;8051;50.820;4.884;2023-10-13T06:16:12;24.83;;;18.60;;
15905;SDS011;8051;50.820;4.884;2023-10-13T06:18:57;25.87;;;17.07;;
15905;SDS011;8051;50.820;4.884;2023-10-13T06:21:43;24.37;;;17.70;;
15905;SDS011;8051;50.820;4.884;2023-10-13T06:24:28;23.77;;;20.30;;
15905;SDS011;8051;50.820;4.884;2023-10-13T06:27:14;25.23;;;19.17;;
15905;SDS011;8051;50.820;4.884;2023-10-13T06:30:01;23.17;;;17.77;;
15905;SDS011;8051;50.820;4.884;2023-10-13T06:32:30;21.80;;;19.13;;
15905;SDS011;8051;50.820;4.884;2023-10-13T06:34:57;23.03;;;19.63;;
15905;SDS011;8051;50.820;4.884;2023-10-13T06:37:30;21.47;;;19.10;;
15905;SDS011;8051;50.820;4.884;2023-10-13T06:56:22;29.07;;;26.47;;
15905;SDS011;8051;50.820;4.884;2023-10-13T06:58:54;29.23;;;25.70;;
15905;SDS011;8051;50.820;4.884;2023-10-13T07:01:25;29.03;;;26.53;;
15905;SDS011;8051;50.820;4.884;2023-10-13T07:03:53;31.90;;;27.43;;
15905;SDS011;8051;50.820;4.884;2023-10-13T07:06:26;31.47;;;28.37;;
15905;SDS011;8051;50.820;4.884;2023-10-13T07:08:55;30.67;;;27.43;;
15905;SDS011;8051;50.820;4.884;2023-10-13T07:11:24;33.47;;;30.43;;
15905;SDS011;8051;50.820;4.884;2023-10-13T07:14:00;32.07;;;28.70;;
15905;SDS011;8051;50.820;4.884;2023-10-13T07:16:36;32.27;;;28.90;;
15905;SDS011;8051;50.820;4.884;2023-10-13T07:19:11;32.33;;;29.60;;
15905;SDS011;8051;50.820;4.884;2023-10-13T07:21:42;32.43;;;29.50;;
15905;SDS011;8051;50.820;4.884;2023-10-13T07:24:12;34.33;;;30.87;;
15905;SDS011;8051;50.820;4.884;2023-10-13T07:26:41;35.83;;;32.50;;
15905;SDS011;8051;50.820;4.884;2023-10-13T07:29:11;36.27;;;33.10;;
15905;SDS011;8051;50.820;4.884;2023-10-13T07:31:39;39.17;;;35.63;;
15905;SDS011;8051;50.820;4.884;2023-10-13T07:34:10;36.73;;;33.33;;
15905;SDS011;8051;50.820;4.884;2023-10-13T07:36:47;38.70;;;35.30;;
15905;SDS011;8051;50.820;4.884;2023-10-13T07:39:16;38.23;;;34.77;;
15905;SDS011;8051;50.820;4.884;2023-10-13T07:41:50;36.67;;;33.57;;
15905;SDS011;8051;50.820;4.884;2023-10-13T07:44:29;39.30;;;36.00;;
15905;SDS011;8051;50.820;4.884;2023-10-13T07:46:58;39.30;;;35.70;;
15905;SDS011;8051;50.820;4.884;2023-10-13T07:49:29;39.67;;;36.17;;
15905;SDS011;8051;50.820;4.884;2023-10-13T07:51:58;41.57;;;38.23;;
15905;SDS011;8051;50.820;4.884;2023-10-13T07:54:42;43.43;;;39.60;;
15905;SDS011;8051;50.820;4.884;2023-10-13T07:57:13;42.30;;;38.70;;
15905;SDS011;8051;50.820;4.884;2023-10-13T07:59:42;45.67;;;42.03;;
15905;SDS011;8051;50.820;4.884;2023-10-13T08:02:18;43.63;;;40.27;;
15905;SDS011;8051;50.820;4.884;2023-10-13T08:05:13;44.30;;;40.07;;
15905;SDS011;8051;50.820;4.884;2023-10-13T08:07:49;45.33;;;41.73;;
15905;SDS011;8051;50.820;4.884;2023-10-13T08:10:17;45.13;;;41.27;;
15905;SDS011;8051;50.820;4.884;2023-10-13T08:12:50;44.70;;;41.07;;
15905;SDS011;8051;50.820;4.884;2023-10-13T08:15:20;44.57;;;41.20;;
15905;SDS011;8051;50.820;4.884;2023-10-13T08:17:57;47.13;;;43.27;;
15905;SDS011;8051;50.820;4.884;2023-10-13T08:20:31;46.40;;;42.67;;
15905;SDS011;8051;50.820;4.884;2023-10-13T08:23:06;47.20;;;43.60;;
15905;SDS011;8051;50.820;4.884;2023-10-13T08:25:39;43.03;;;39.93;;
15905;SDS011;8051;50.820;4.884;2023-10-13T08:28:24;47.13;;;43.50;;
15905;SDS011;8051;50.820;4.884;2023-10-13T08:31:08;46.67;;;42.80;;
15905;SDS011;8051;50.820;4.884;2023-10-13T08:33:47;45.20;;;41.83;;
15905;SDS011;8051;50.820;4.884;2023-10-13T08:36:15;44.10;;;40.53;;
15905;SDS011;8051;50.820;4.884;2023-10-13T08:38:55;42.93;;;39.33;;
15905;SDS011;8051;50.820;4.884;2023-10-13T08:41:23;42.97;;;39.60;;
15905;SDS011;8051;50.820;4.884;2023-10-13T08:44:19;43.73;;;40.30;;
15905;SDS011;8051;50.820;4.884;2023-10-13T08:46:58;45.17;;;41.57;;
15905;SDS011;8051;50.820;4.884;2023-10-13T08:49:42;43.77;;;40.63;;
15905;SDS011;8051;50.820;4.884;2023-10-13T08:52:17;42.73;;;39.53;;
15905;SDS011;8051;50.820;4.884;2023-10-13T08:55:12;40.80;;;37.60;;
15905;SDS011;8051;50.820;4.884;2023-10-13T08:58:04;39.97;;;37.17;;
15905;SDS011;8051;50.820;4.884;2023-10-13T09:00:39;38.83;;;36.00;;
15905;SDS011;8051;50.820;4.884;2023-10-13T09:03:37;40.47;;;36.90;;
15905;SDS011;8051;50.820;4.884;2023-10-13T09:06:05;39.50;;;36.30;;
15905;SDS011;8051;50.820;4.884;2023-10-13T09:08:34;37.80;;;35.00;;
15905;SDS011;8051;50.820;4.884;2023-10-13T09:11:02;39.30;;;36.40;;
15905;SDS011;8051;50.820;4.884;2023-10-13T09:13:37;42.27;;;38.67;;
15905;SDS011;8051;50.820;4.884;2023-10-13T09:16:10;39.77;;;36.67;;
15905;SDS011;8051;50.820;4.884;2023-10-13T09:18:52;40.20;;;37.20;;
15905;SDS011;8051;50.820;4.884;2023-10-13T09:21:30;40.90;;;37.63;;
15905;SDS011;8051;50.820;4.884;2023-10-13T09:24:14;40.50;;;37.40;;
15905;SDS011;8051;50.820;4.884;2023-10-13T09:26:58;41.53;;;38.80;;
15905;SDS011;8051;50.820;4.884;2023-10-13T09:29:28;40.70;;;37.80;;
15905;SDS011;8051;50.820;4.884;2023-10-13T09:32:00;41.90;;;38.70;;
15905;SDS011;8051;50.820;4.884;2023-10-13T09:34:29;42.97;;;39.73;;
15905;SDS011;8051;50.820;4.884;2023-10-13T09:36:59;41.77;;;38.03;;
15905;SDS011;8051;50.820;4.884;2023-10-13T09:39:29;44.27;;;40.60;;
15905;SDS011;8051;50.820;4.884;2023-10-13T09:42:07;43.13;;;39.73;;
15905;SDS011;8051;50.820;4.884;2023-10-13T09:44:36;44.37;;;41.10;;
15905;SDS011;8051;50.820;4.884;2023-10-13T09:47:05;42.20;;;39.57;;
15905;SDS011;8051;50.820;4.884;2023-10-13T09:49:43;42.97;;;39.97;;
15905;SDS011;8051;50.820;4.884;2023-10-13T09:52:12;43.20;;;39.50;;
15905;SDS011;8051;50.820;4.884;2023-10-13T09:54:47;42.53;;;39.37;;
15905;SDS011;8051;50.820;4.884;2023-10-13T09:57:27;42.97;;;39.47;;
15905;SDS011;8051;50.820;4.884;2023-10-13T10:00:08;43.23;;;40.10;;
15905;SDS011;8051;50.820;4.884;2023-10-13T10:02:51;41.10;;;37.73;;
15905;SDS011;8051;50.820;4.884;2023-10-13T10:05:24;40.20;;;37.20;;
15905;SDS011;8051;50.820;4.884;2023-10-13T10:07:54;40.33;;;37.50;;
15905;SDS011;8051;50.820;4.884;2023-10-13T10:10:27;39.23;;;36.23;;
15905;SDS011;8051;50.820;4.884;2023-10-13T10:13:07;39.63;;;36.83;;
15905;SDS011;8051;50.820;4.884;2023-10-13T10:15:43;38.63;;;36.03;;
15905;SDS011;8051;50.820;4.884;2023-10-13T10:18:19;39.17;;;36.37;;
15905;SDS011;8051;50.820;4.884;2023-10-13T10:20:50;39.10;;;35.90;;
15905;SDS011;8051;50.820;4.884;2023-10-13T10:23:23;37.03;;;34.27;;
15905;SDS011;8051;50.820;4.884;2023-10-13T10:25:53;33.47;;;30.90;;
15905;SDS011;8051;50.820;4.884;2023-10-13T10:28:36;32.30;;;29.37;;
15905;SDS011;8051;50.820;4.884;2023-10-13T10:31:04;32.40;;;30.00;;
15905;SDS011;8051;50.820;4.884;2023-10-13T10:33:34;32.97;;;30.17;;
15905;SDS011;8051;50.820;4.884;2023-10-13T10:36:02;30.93;;;28.57;;
15905;SDS011;8051;50.820;4.884;2023-10-13T10:38:30;31.50;;;29.10;;
15905;SDS011;8051;50.820;4.884;2023-10-13T10:41:05;28.60;;;26.17;;
15905;SDS011;8051;50.820;4.884;2023-10-13T10:43:39;30.40;;;27.43;;
15905;SDS011;8051;50.820;4.884;2023-10-13T10:46:11;31.20;;;28.57;;
15905;SDS011;8051;50.820;4.884;2023-10-13T10:48:40;31.23;;;28.37;;
15905;SDS011;8051;50.820;4.884;2023-10-13T10:51:09;30.37;;;27.60;;
15905;SDS011;8051;50.820;4.884;2023-10-13T10:53:48;28.93;;;26.23;;
15905;SDS011;8051;50.820;4.884;2023-10-13T10:56:18;28.83;;;26.33;;
15905;SDS011;8051;50.820;4.884;2023-10-13T10:59:02;26.77;;;24.40;;
15905;SDS011;8051;50.820;4.884;2023-10-13T11:01:31;28.37;;;25.80;;
15905;SDS011;8051;50.820;4.884;2023-10-13T11:04:04;30.03;;;26.97;;
15905;SDS011;8051;50.820;4.884;2023-10-13T11:06:44;29.07;;;26.43;;
15905;SDS011;8051;50.820;4.884;2023-10-13T11:09:13;29.70;;;27.00;;
15905;SDS011;8051;50.820;4.884;2023-10-13T11:12:07;30.20;;;27.43;;
15905;SDS011;8051;50.820;4.884;2023-10-13T11:14:40;29.90;;;27.23;;
15905;SDS011;8051;50.820;4.884;2023-10-13T11:17:18;28.77;;;25.93;;
15905;SDS011;8051;50.820;4.884;2023-10-13T11:19:50;28.17;;;25.23;;
15905;SDS011;8051;50.820;4.884;2023-10-13T11:22:18;27.17;;;24.63;;
15905;SDS011;8051;50.820;4.884;2023-10-13T11:25:07;28.33;;;25.77;;
15905;SDS011;8051;50.820;4.884;2023-10-13T11:27:37;25.83;;;23.37;;
15905;SDS011;8051;50.820;4.884;2023-10-13T11:30:21;25.63;;;22.87;;
15905;SDS011;8051;50.820;4.884;2023-10-13T11:32:58;24.93;;;22.73;;
15905;SDS011;8051;50.820;4.884;2023-10-13T11:35:30;25.57;;;22.90;;
15905;SDS011;8051;50.820;4.884;2023-10-13T11:38:12;25.30;;;22.70;;
15905;SDS011;8051;50.820;4.884;2023-10-13T11:40:40;24.30;;;22.10;;
15905;SDS011;8051;50.820;4.884;2023-10-13T11:43:33;25.90;;;23.07;;
15905;SDS011;8051;50.820;4.884;2023-10-13T11:46:18;24.47;;;22.00;;
15905;SDS011;8051;50.820;4.884;2023-10-13T11:49:00;23.67;;;21.07;;
15905;SDS011;8051;50.820;4.884;2023-10-13T11:51:39;26.27;;;23.63;;
15905;SDS011;8051;50.820;4.884;2023-10-13T11:54:10;24.83;;;21.63;;
15905;SDS011;8051;50.820;4.884;2023-10-13T11:56:37;23.27;;;20.93;;
15905;SDS011;8051;50.820;4.884;2023-10-13T11:59:06;24.13;;;21.50;;
15905;SDS011;8051;50.820;4.884;2023-10-13T12:01:41;24.43;;;22.00;;
15905;SDS011;8051;50.820;4.884;2023-10-13T12:04:27;23.53;;;21.30;;
15905;SDS011;8051;50.820;4.884;2023-10-13T12:07:06;24.90;;;22.37;;
15905;SDS011;8051;50.820;4.884;2023-10-13T12:09:45;26.47;;;21.70;;
15905;SDS011;8051;50.820;4.884;2023-10-13T12:12:31;24.73;;;21.90;;
15905;SDS011;8051;50.820;4.884;2023-10-13T12:15:08;23.60;;;21.07;;
15905;SDS011;8051;50.820;4.884;2023-10-13T12:17:40;22.20;;;20.10;;
15905;SDS011;8051;50.820;4.884;2023-10-13T12:20:10;22.33;;;20.33;;
15905;SDS011;8051;50.820;4.884;2023-10-13T12:22:44;24.77;;;18.47;;
15905;SDS011;8051;50.820;4.884;2023-10-13T12:25:20;20.20;;;18.70;;
15905;SDS011;8051;50.820;4.884;2023-10-13T12:28:09;21.97;;;19.73;;
15905;SDS011;8051;50.820;4.884;2023-10-13T12:30:45;21.80;;;20.00;;
15905;SDS011;8051;50.820;4.884;2023-10-13T12:33:17;23.40;;;21.23;;
15905;SDS011;8051;50.820;4.884;2023-10-13T12:35:54;24.27;;;22.00;;
15905;SDS011;8051;50.820;4.884;2023-10-13T12:38:55;24.27;;;21.73;;
15905;SDS011;8051;50.820;4.884;2023-10-13T12:41:40;21.50;;;19.67;;
15905;SDS011;8051;50.820;4.884;2023-10-13T12:44:24;25.13;;;20.53;;
15905;SDS011;8051;50.820;4.884;2023-10-13T12:47:10;21.50;;;19.57;;
15905;SDS011;8051;50.820;4.884;2023-10-13T12:49:55;21.63;;;19.47;;
15905;SDS011;8051;50.820;4.884;2023-10-13T12:52:32;22.70;;;20.30;;
15905;SDS011;8051;50.820;4.884;2023-10-13T12:55:01;22.30;;;19.57;;
15905;SDS011;8051;50.820;4.884;2023-10-13T12:57:38;21.27;;;19.03;;
15905;SDS011;8051;50.820;4.884;2023-10-13T13:00:11;22.10;;;20.30;;
15905;SDS011;8051;50.820;4.884;2023-10-13T13:02:59;22.77;;;20.70;;
15905;SDS011;8051;50.820;4.884;2023-10-13T13:05:36;24.47;;;22.17;;
15905;SDS011;8051;50.820;4.884;2023-10-13T13:08:09;22.80;;;20.67;;
15905;SDS011;8051;50.820;4.884;2023-10-13T13:10:44;21.63;;;19.77;;
15905;SDS011;8051;50.820;4.884;2023-10-13T13:13:13;21.77;;;19.87;;
15905;SDS011;8051;50.820;4.884;2023-10-13T13:15:42;23.53;;;21.30;;
15905;SDS011;8051;50.820;4.884;2023-10-13T13:18:11;22.90;;;20.63;;
15905;SDS011;8051;50.820;4.884;2023-10-13T13:20:39;21.73;;;19.73;;
15905;SDS011;8051;50.820;4.884;2023-10-13T13:23:18;24.53;;;21.90;;
15905;SDS011;8051;50.820;4.884;2023-10-13T13:25:45;22.43;;;20.33;;
15905;SDS011;8051;50.820;4.884;2023-10-13T13:28:13;23.07;;;20.80;;
15905;SDS011;8051;50.820;4.884;2023-10-13T13:30:41;20.83;;;19.23;;
15905;SDS011;8051;50.820;4.884;2023-10-13T13:33:08;23.13;;;21.30;;
15905;SDS011;8051;50.820;4.884;2023-10-13T13:35:40;24.40;;;21.83;;
15905;SDS011;8051;50.820;4.884;2023-10-13T13:38:09;21.10;;;19.47;;
15905;SDS011;8051;50.820;4.884;2023-10-13T13:40:42;22.60;;;20.17;;
15905;SDS011;8051;50.820;4.884;2023-10-13T13:43:14;24.10;;;22.20;;
15905;SDS011;8051;50.820;4.884;2023-10-13T13:45:56;21.47;;;19.37;;
15905;SDS011;8051;50.820;4.884;2023-10-13T13:48:26;23.20;;;21.10;;
15905;SDS011;8051;50.820;4.884;2023-10-13T13:50:55;21.73;;;19.80;;
15905;SDS011;8051;50.820;4.884;2023-10-13T13:53:29;20.83;;;19.03;;
15905;SDS011;8051;50.820;4.884;2023-10-13T13:56:00;21.27;;;19.50;;
15905;SDS011;8051;50.820;4.884;2023-10-13T13:58:28;21.73;;;20.13;;
15905;SDS011;8051;50.820;4.884;2023-10-13T14:00:59;20.90;;;19.10;;
15905;SDS011;8051;50.820;4.884;2023-10-13T14:03:37;22.20;;;20.50;;
15905;SDS011;8051;50.820;4.884;2023-10-13T14:06:11;24.33;;;22.10;;
15905;SDS011;8051;50.820;4.884;2023-10-13T14:08:43;22.07;;;20.30;;
15905;SDS011;8051;50.820;4.884;2023-10-13T14:11:13;22.67;;;20.50;;
15905;SDS011;8051;50.820;4.884;2023-10-13T14:14:09;22.90;;;21.10;;
15905;SDS011;8051;50.820;4.884;2023-10-13T14:16:37;23.20;;;21.27;;
15905;SDS011;8051;50.820;4.884;2023-10-13T14:19:09;21.30;;;19.70;;
15905;SDS011;8051;50.820;4.884;2023-10-13T14:21:38;24.37;;;22.37;;
15905;SDS011;8051;50.820;4.884;2023-10-13T14:24:07;20.97;;;19.57;;
15905;SDS011;8051;50.820;4.884;2023-10-13T14:26:40;21.80;;;19.53;;
15905;SDS011;8051;50.820;4.884;2023-10-13T14:29:10;22.80;;;20.80;;
15905;SDS011;8051;50.820;4.884;2023-10-13T14:31:39;21.43;;;19.73;;
15905;SDS011;8051;50.820;4.884;2023-10-13T14:34:09;21.67;;;20.07;;
15905;SDS011;8051;50.820;4.884;2023-10-13T14:36:36;24.47;;;22.17;;
15905;SDS011;8051;50.820;4.884;2023-10-13T14:39:06;22.07;;;20.07;;
15905;SDS011;8051;50.820;4.884;2023-10-13T14:41:35;23.47;;;21.67;;
15905;SDS011;8051;50.820;4.884;2023-10-13T14:44:03;24.10;;;21.70;;
15905;SDS011;8051;50.820;4.884;2023-10-13T14:46:32;22.40;;;20.57;;
15905;SDS011;8051;50.820;4.884;2023-10-13T14:49:01;23.40;;;20.27;;
15905;SDS011;8051;50.820;4.884;2023-10-13T14:51:29;22.30;;;20.37;;
15905;SDS011;8051;50.820;4.884;2023-10-13T14:53:59;22.50;;;20.40;;
15905;SDS011;8051;50.820;4.884;2023-10-13T14:56:29;22.10;;;20.13;;
15905;SDS011;8051;50.820;4.884;2023-10-13T14:58:56;23.77;;;21.50;;
15905;SDS011;8051;50.820;4.884;2023-10-13T15:01:24;22.60;;;20.43;;
15905;SDS011;8051;50.820;4.884;2023-10-13T15:03:52;24.80;;;22.50;;
15905;SDS011;8051;50.820;4.884;2023-10-13T15:06:22;25.60;;;23.10;;
15905;SDS011;8051;50.820;4.884;2023-10-13T15:08:54;24.07;;;22.17;;
15905;SDS011;8051;50.820;4.884;2023-10-13T15:11:23;22.83;;;20.87;;
15905;SDS011;8051;50.820;4.884;2023-10-13T15:13:52;22.63;;;20.80;;
15905;SDS011;8051;50.820;4.884;2023-10-13T15:16:21;24.13;;;21.80;;
15905;SDS011;8051;50.820;4.884;2023-10-13T15:18:49;26.30;;;24.23;;
15905;SDS011;8051;50.820;4.884;2023-10-13T15:21:21;25.43;;;23.53;;
15905;SDS011;8051;50.820;4.884;2023-10-13T15:23:51;25.20;;;22.77;;
15905;SDS011;8051;50.820;4.884;2023-10-13T15:26:18;27.43;;;25.33;;
15905;SDS011;8051;50.820;4.884;2023-10-13T15:28:49;27.80;;;25.57;;
15905;SDS011;8051;50.820;4.884;2023-10-13T15:31:18;26.47;;;24.37;;
15905;SDS011;8051;50.820;4.884;2023-10-13T15:33:51;31.20;;;28.53;;